Time;durP1;ratioP1;P1;durP2;ratioP2;P2;SDS_P1;SDS_P2;PMS_P1;PMS_P2;Temp;Humidity;BMP_temperature;BMP_pressure;BME280_temperature;BME280_humidity;BME280_pressure;Samples;Min_cycle;Max_cycle;Signal;HPM_P1;HPM_P2
2022/03/01 00:01:27;;;;;;;9.73;8.30;;;2.50;92.20;;;;;;5069783;28;20213;-60
2022/03/01 00:03:53;;;;;;;11.87;8.13;;;1.70;91.60;;;;;;5063499;28;20218;-59
2022/03/01 00:06:18;;;;;;;9.70;8.30;;;2.20;91.90;;;;;;5065778;28;20657;-60
2022/03/01 00:08:44;;;;;;;10.50;7.60;;;1.50;91.30;;;;;;5068867;28;20193;-61
2022/03/01 00:11:10;;;;;;;11.80;7.80;;;1.80;91.40;;;;;;5070361;28;20185;-59
2022/03/01 00:13:36;;;;;;;10.13;8.47;;;2.30;92.20;;;;;;5066430;28;20270;-59
2022/03/01 00:16:03;;;;;;;9.85;7.60;;;2.00;92.10;;;;;;5074389;28;20561;-62
2022/03/01 00:18:28;;;;;;;10.35;7.38;;;1.90;92.80;;;;;;5054823;28;20185;-60
2022/03/01 00:20:54;;;;;;;10.90;8.53;;;2.50;92.80;;;;;;5065423;28;20184;-60
2022/03/01 00:23:20;;;;;;;10.83;7.70;;;2.30;92.30;;;;;;5069883;28;20932;-60
2022/03/01 00:25:45;;;;;;;8.83;7.03;;;2.00;91.70;;;;;;5069572;28;20682;-60
2022/03/01 00:28:11;;;;;;;13.40;8.80;;;1.70;91.80;;;;;;5064617;28;20529;-59
2022/03/01 00:30:37;;;;;;;11.60;8.20;;;1.70;92.00;;;;;;5070433;28;20229;-61
2022/03/01 00:33:02;;;;;;;9.90;8.13;;;1.60;92.10;;;;;;5055702;28;20220;-61
2022/03/01 00:35:28;;;;;;;10.63;7.23;;;1.80;92.50;;;;;;5048665;28;20273;-61
2022/03/01 00:37:54;;;;;;;11.63;7.87;;;2.40;92.80;;;;;;5068253;28;20221;-60
2022/03/01 00:40:19;;;;;;;11.50;7.70;;;1.10;92.20;;;;;;5066336;28;20721;-59
2022/03/01 00:42:45;;;;;;;9.47;7.10;;;1.60;92.50;;;;;;5066253;28;20196;-60
2022/03/01 00:45:10;;;;;;;10.97;7.10;;;1.60;91.90;;;;;;5066038;28;20181;-60
2022/03/01 00:47:36;;;;;;;9.13;7.20;;;1.70;92.10;;;;;;5068171;28;20250;-60
2022/03/01 00:50:02;;;;;;;10.97;7.00;;;1.70;91.60;;;;;;5062309;28;20300;-60
2022/03/01 00:52:28;;;;;;;11.45;7.43;;;1.50;91.30;;;;;;5068854;28;20635;-60
2022/03/01 00:54:53;;;;;;;8.57;7.07;;;1.60;91.40;;;;;;5066126;28;20181;-60
2022/03/01 00:57:19;;;;;;;10.43;8.03;;;1.50;91.50;;;;;;5065601;28;20646;-60
2022/03/01 00:59:44;;;;;;;9.50;7.17;;;2.10;91.70;;;;;;5063649;28;20184;-60
2022/03/01 01:02:10;;;;;;;11.53;6.90;;;2.00;91.80;;;;;;5068868;28;20693;-60
2022/03/01 01:04:36;;;;;;;9.70;6.40;;;1.50;91.40;;;;;;5058996;28;20190;-60
2022/03/01 01:07:02;;;;;;;8.95;6.55;;;1.70;91.40;;;;;;5067489;28;20447;-60
2022/03/01 01:09:28;;;;;;;9.37;7.17;;;1.60;91.30;;;;;;5062189;28;20537;-60
2022/03/01 01:11:53;;;;;;;9.20;6.17;;;2.00;91.50;;;;;;5062931;28;20505;-60
2022/03/01 01:14:19;;;;;;;11.43;8.20;;;2.10;91.60;;;;;;5063126;28;20311;-60
2022/03/01 01:16:44;;;;;;;9.60;7.20;;;1.40;91.40;;;;;;5063700;28;20185;-60
2022/03/01 01:19:10;;;;;;;10.70;7.17;;;1.10;92.00;;;;;;5053203;28;20197;-61
2022/03/01 01:24:20;;;;;;;11.00;6.65;;;1.50;91.50;;;;;;5064893;28;20191;-61
2022/03/01 01:26:46;;;;;;;10.40;7.27;;;1.50;91.70;;;;;;5068333;28;20586;-61
2022/03/01 01:29:11;;;;;;;10.77;7.53;;;1.40;91.60;;;;;;5059152;28;20552;-61
2022/03/01 01:31:37;;;;;;;10.90;6.93;;;1.90;91.90;;;;;;5068801;28;20462;-61
2022/03/01 01:34:03;;;;;;;12.47;7.60;;;1.40;91.70;;;;;;5063080;28;20260;-60
2022/03/01 01:36:29;;;;;;;9.60;7.50;;;1.20;91.90;;;;;;5061152;28;20646;-61
2022/03/01 01:38:55;;;;;;;12.25;7.72;;;1.30;91.80;;;;;;5062207;28;20196;-60
2022/03/01 01:41:21;;;;;;;12.48;8.05;;;1.30;92.10;;;;;;5066096;28;20264;-60
2022/03/01 01:43:47;;;;;;;8.90;7.30;;;1.20;92.10;;;;;;5061272;28;20209;-61
2022/03/01 01:46:12;;;;;;;10.43;6.93;;;1.00;91.70;;;;;;5069132;28;20189;-63
2022/03/01 01:48:38;;;;;;;9.60;7.13;;;1.20;92.20;;;;;;5058512;28;21033;-63
2022/03/01 01:51:04;;;;;;;8.40;7.20;;;1.20;91.90;;;;;;5052515;28;20181;-61
2022/03/01 01:53:29;;;;;;;12.53;7.23;;;1.00;92.00;;;;;;5067602;28;20213;-61
2022/03/01 01:55:55;;;;;;;14.10;7.87;;;1.50;92.60;;;;;;5067838;28;20262;-62
2022/03/01 01:58:21;;;;;;;11.67;7.57;;;1.00;92.10;;;;;;5065234;28;20189;-61
2022/03/01 02:00:46;;;;;;;10.30;7.53;;;1.00;92.40;;;;;;5061445;28;20189;-61
2022/03/01 02:03:12;;;;;;;12.90;8.27;;;0.80;92.60;;;;;;5066663;28;20216;-60
2022/03/01 02:05:38;;;;;;;11.53;7.37;;;0.90;93.20;;;;;;5047701;28;20212;-60
2022/03/01 02:08:04;;;;;;;12.73;7.43;;;0.80;93.60;;;;;;5065636;28;20207;-60
2022/03/01 02:10:29;;;;;;;12.27;8.47;;;0.70;93.40;;;;;;5066881;28;20272;-60
2022/03/01 02:12:56;;;;;;;11.90;7.77;;;0.80;93.50;;;;;;5067768;28;20477;-61
2022/03/01 02:15:23;;;;;;;11.40;8.43;;;0.70;93.70;;;;;;5064897;28;20432;-60
2022/03/01 02:17:49;;;;;;;12.70;7.78;;;0.70;94.50;;;;;;5061573;28;20185;-61
2022/03/01 02:20:19;;;;;;;12.90;8.02;;;0.90;95.20;;;;;;5045774;28;20200;-61
2022/03/01 02:22:47;;;;;;;11.68;8.30;;;0.70;94.30;;;;;;5068201;28;20549;-60
2022/03/01 02:25:13;;;;;;;11.65;7.97;;;0.80;94.20;;;;;;5067744;28;20173;-61
2022/03/01 02:27:39;;;;;;;12.55;7.75;;;0.60;93.90;;;;;;5061254;28;20192;-63
2022/03/01 02:30:07;;;;;;;12.73;7.43;;;0.60;93.60;;;;;;5069348;28;20283;-62
2022/03/01 02:32:35;;;;;;;13.68;7.95;;;1.00;94.00;;;;;;5065219;28;20304;-60
2022/03/01 02:35:01;;;;;;;11.82;7.45;;;0.50;93.70;;;;;;5061346;28;20317;-61
2022/03/01 02:37:26;;;;;;;11.48;7.72;;;0.80;93.80;;;;;;5067528;28;20184;-60
2022/03/01 02:39:53;;;;;;;11.00;7.33;;;0.10;93.30;;;;;;5068327;28;20281;-61
2022/03/01 02:42:20;;;;;;;9.70;8.05;;;0.10;93.70;;;;;;5068800;28;20786;-60
2022/03/01 02:44:47;;;;;;;11.73;8.27;;;0.50;94.00;;;;;;5045660;28;20193;-61
2022/03/01 02:47:14;;;;;;;10.50;7.88;;;0.80;94.30;;;;;;5069854;28;20181;-61
2022/03/01 02:49:39;;;;;;;13.00;8.48;;;1.10;94.30;;;;;;5057427;28;20611;-60
2022/03/01 02:52:06;;;;;;;12.57;7.73;;;0.50;94.20;;;;;;5068418;28;20236;-60
2022/03/01 02:54:31;;;;;;;12.27;7.75;;;0.50;94.30;;;;;;5068732;28;20181;-60
2022/03/01 02:57:00;;;;;;;10.80;7.60;;;0.50;94.60;;;;;;5063049;28;20792;-62
2022/03/01 02:59:28;;;;;;;15.75;8.18;;;0.70;94.70;;;;;;5045735;28;20216;-61
2022/03/01 03:01:55;;;;;;;13.60;8.02;;;0.50;94.60;;;;;;5065696;28;20205;-61
2022/03/01 03:04:21;;;;;;;12.60;8.60;;;-0.10;94.20;;;;;;5057819;28;20581;-61
2022/03/01 03:06:47;;;;;;;13.03;7.90;;;0.50;94.30;;;;;;5065780;28;20446;-60
2022/03/01 03:09:13;;;;;;;11.83;8.60;;;0.50;94.60;;;;;;5064327;28;20285;-60
2022/03/01 03:11:38;;;;;;;11.17;7.90;;;0.50;94.50;;;;;;5063157;28;20218;-62
2022/03/01 03:14:04;;;;;;;12.53;8.00;;;0.60;95.00;;;;;;5053831;28;20450;-64
2022/03/01 03:16:30;;;;;;;12.60;8.38;;;0.60;94.90;;;;;;5045986;28;20875;-61
2022/03/01 03:18:56;;;;;;;13.47;8.83;;;0.60;95.40;;;;;;5061575;28;20195;-64
2022/03/01 03:21:22;;;;;;;13.43;7.80;;;0.00;95.00;;;;;;5064142;28;20450;-62
2022/03/01 03:23:48;;;;;;;14.60;8.27;;;0.60;94.80;;;;;;5064010;28;20239;-62
2022/03/01 03:26:14;;;;;;;13.63;8.55;;;0.50;94.90;;;;;;5064512;28;20233;-61
2022/03/01 03:28:39;;;;;;;13.25;8.48;;;0.50;95.00;;;;;;5045230;28;20186;-65
2022/03/01 03:31:05;;;;;;;13.17;8.73;;;0.30;95.20;;;;;;5059084;28;20196;-61
2022/03/01 03:33:30;;;;;;;10.90;7.80;;;0.30;95.40;;;;;;5063375;28;20595;-61
2022/03/01 03:35:57;;;;;;;14.57;8.97;;;0.30;95.70;;;;;;5062611;28;20192;-62
2022/03/01 03:38:24;;;;;;;11.55;7.93;;;0.40;96.00;;;;;;5058683;28;20217;-61
2022/03/01 03:40:51;;;;;;;10.63;7.53;;;0.20;95.80;;;;;;5068139;28;20483;-61
2022/03/01 03:43:17;;;;;;;15.90;9.02;;;0.20;95.90;;;;;;5053692;28;20316;-61
2022/03/01 03:45:42;;;;;;;12.13;8.53;;;0.50;95.80;;;;;;5063744;28;20283;-61
2022/03/01 03:48:08;;;;;;;9.63;7.13;;;0.50;95.80;;;;;;5071217;28;20193;-62
2022/03/01 03:50:34;;;;;;;13.20;8.40;;;0.50;95.90;;;;;;5061297;28;20604;-62
2022/03/01 03:53:00;;;;;;;11.00;8.00;;;0.80;96.20;;;;;;5070109;28;20205;-62
2022/03/01 03:55:26;;;;;;;10.23;7.63;;;0.00;95.90;;;;;;5070029;28;20177;-61
2022/03/01 03:57:51;;;;;;;11.80;8.48;;;0.20;96.30;;;;;;5058928;28;20439;-63
2022/03/01 04:00:18;;;;;;;13.10;8.53;;;0.30;96.40;;;;;;5069209;28;20203;-63
2022/03/01 04:02:45;;;;;;;14.32;8.07;;;0.20;96.30;;;;;;5071625;28;20709;-59
2022/03/01 04:05:12;;;;;;;14.77;9.23;;;0.30;96.70;;;;;;5058894;28;20284;-59
2022/03/01 04:07:39;;;;;;;10.75;8.55;;;0.30;96.40;;;;;;5067625;28;20562;-60
2022/03/01 04:10:06;;;;;;;16.60;9.02;;;0.40;96.60;;;;;;5053855;28;20254;-59
2022/03/01 04:12:32;;;;;;;12.15;8.82;;;0.30;96.70;;;;;;5067472;28;20261;-61
2022/03/01 04:14:57;;;;;;;10.87;8.17;;;0.20;96.50;;;;;;5068502;28;20185;-61
2022/03/01 04:17:23;;;;;;;13.13;8.53;;;-0.20;96.50;;;;;;5063002;28;20189;-59
2022/03/01 04:19:49;;;;;;;13.93;8.17;;;0.50;97.30;;;;;;5062008;28;20204;-59
2022/03/01 04:22:14;;;;;;;11.10;8.57;;;-0.20;96.50;;;;;;5071043;28;20246;-59
2022/03/01 04:24:40;;;;;;;13.73;8.40;;;0.40;96.50;;;;;;5069095;28;20689;-60
2022/03/01 04:27:06;;;;;;;11.20;8.83;;;0.20;96.80;;;;;;5070496;28;20186;-64
2022/03/01 04:29:31;;;;;;;12.73;8.00;;;0.20;96.70;;;;;;5035360;28;20189;-62
2022/03/01 04:31:57;;;;;;;12.40;8.70;;;-0.30;96.30;;;;;;5042784;28;20205;-61
2022/03/01 04:34:23;;;;;;;13.90;9.17;;;0.30;96.40;;;;;;5051030;28;20193;-61
2022/03/01 04:36:48;;;;;;;13.50;9.37;;;0.20;96.40;;;;;;5069918;28;20221;-66
2022/03/01 04:39:14;;;;;;;14.37;9.40;;;0.40;96.20;;;;;;5041561;28;20185;-63
2022/03/01 04:41:40;;;;;;;10.80;8.67;;;0.20;96.30;;;;;;5045022;28;20839;-61
2022/03/01 04:44:06;;;;;;;12.63;8.37;;;0.00;96.10;;;;;;5062278;28;20940;-62
2022/03/01 04:46:33;;;;;;;13.53;9.83;;;0.20;96.50;;;;;;5051617;28;20272;-61
2022/03/01 04:48:58;;;;;;;11.27;8.20;;;0.30;96.60;;;;;;5059006;28;20186;-65
2022/03/01 04:51:24;;;;;;;10.97;8.20;;;0.00;96.50;;;;;;5048549;28;20581;-61
2022/03/01 04:53:50;;;;;;;12.87;8.20;;;0.10;96.60;;;;;;5061390;28;20300;-61
2022/03/01 04:56:16;;;;;;;11.73;8.18;;;0.10;96.80;;;;;;5063448;28;20569;-62
2022/03/01 04:58:42;;;;;;;13.90;9.23;;;0.10;96.60;;;;;;5067720;28;20188;-61
2022/03/01 05:01:08;;;;;;;9.73;7.53;;;0.00;96.20;;;;;;5067630;28;20185;-61
2022/03/01 05:03:34;;;;;;;12.23;8.37;;;0.10;96.70;;;;;;5059262;28;20443;-63
2022/03/01 05:05:59;;;;;;;17.77;8.63;;;0.20;96.60;;;;;;5060376;28;20815;-61
2022/03/01 05:08:30;;;;;;;14.57;9.40;;;0.00;96.40;;;;;;5068996;28;20192;-61
2022/03/01 05:10:57;;;;;;;13.32;9.27;;;0.20;96.60;;;;;;5063632;28;20212;-61
2022/03/01 05:13:22;;;;;;;13.90;9.75;;;0.10;96.50;;;;;;5047764;28;20206;-62
2022/03/01 05:15:48;;;;;;;12.87;9.07;;;0.20;96.50;;;;;;5064376;28;20697;-60
2022/03/01 05:18:13;;;;;;;14.53;9.63;;;0.00;96.90;;;;;;5051629;28;20207;-59
2022/03/01 05:20:39;;;;;;;11.23;8.67;;;-0.40;97.20;;;;;;5062908;28;20231;-61
2022/03/01 05:23:05;;;;;;;11.80;7.77;;;0.20;97.20;;;;;;5066574;28;20221;-61
2022/03/01 05:25:30;;;;;;;14.47;9.20;;;0.00;97.10;;;;;;5067252;28;20276;-61
2022/03/01 05:27:56;;;;;;;11.83;8.30;;;0.10;97.10;;;;;;5067073;28;20423;-61
2022/03/01 05:30:23;;;;;;;15.30;8.60;;;-0.40;97.10;;;;;;5048711;28;20188;-61
2022/03/01 05:32:52;;;;;;;11.20;8.55;;;0.10;97.30;;;;;;5064188;28;20209;-61
2022/03/01 05:35:21;;;;;;;14.63;9.13;;;-0.50;96.90;;;;;;5058219;28;20267;-63
2022/03/01 05:37:49;;;;;;;15.02;9.40;;;0.00;97.00;;;;;;5068575;28;20185;-59
2022/03/01 05:40:16;;;;;;;13.65;8.65;;;-0.60;96.80;;;;;;5064267;28;20526;-59
2022/03/01 05:42:43;;;;;;;13.82;9.05;;;-0.10;97.10;;;;;;5056065;28;20212;-61
2022/03/01 05:45:11;;;;;;;12.57;9.48;;;-0.20;97.00;;;;;;5063554;28;20196;-63
2022/03/01 05:47:37;;;;;;;15.88;9.65;;;0.00;97.00;;;;;;5067650;28;20664;-59
2022/03/01 05:50:03;;;;;;;14.43;9.38;;;-0.60;96.70;;;;;;5060690;28;20186;-63
2022/03/01 05:52:29;;;;;;;10.70;8.05;;;0.10;96.80;;;;;;5066173;28;20260;-63
2022/03/01 05:54:55;;;;;;;13.38;8.95;;;0.40;96.30;;;;;;5069248;28;20661;-60
2022/03/01 05:57:24;;;;;;;11.97;8.70;;;0.00;95.90;;;;;;5066837;28;20192;-59
2022/03/01 05:59:49;;;;;;;14.02;9.50;;;0.00;96.10;;;;;;5049805;28;20453;-59
2022/03/01 06:02:15;;;;;;;14.13;9.50;;;0.10;96.60;;;;;;5067917;28;20204;-59
2022/03/01 06:04:41;;;;;;;11.73;8.60;;;0.00;96.80;;;;;;5060402;28;20192;-62
2022/03/01 06:07:06;;;;;;;16.07;10.00;;;-0.10;96.80;;;;;;5068231;28;20310;-59
2022/03/01 06:09:32;;;;;;;13.30;8.80;;;0.00;96.90;;;;;;5066566;28;20204;-59
2022/03/01 06:11:57;;;;;;;15.57;8.60;;;0.00;97.00;;;;;;5068844;28;20215;-59
2022/03/01 06:14:23;;;;;;;14.73;9.27;;;-0.10;97.10;;;;;;5062009;28;20576;-59
2022/03/01 06:16:48;;;;;;;16.17;8.57;;;-0.70;97.20;;;;;;5067479;28;20178;-59
2022/03/01 06:19:14;;;;;;;13.30;10.00;;;-0.30;97.90;;;;;;5060823;28;20182;-60
2022/03/01 06:21:40;;;;;;;16.67;9.87;;;0.10;98.00;;;;;;5068968;28;20293;-60
2022/03/01 06:24:06;;;;;;;12.60;8.83;;;-0.60;97.30;;;;;;5059803;28;20242;-58
2022/03/01 06:26:33;;;;;;;15.40;9.40;;;-0.10;97.30;;;;;;5065417;28;20790;-61
2022/03/01 06:28:58;;;;;;;13.40;9.13;;;-0.10;97.30;;;;;;5041427;28;20251;-59
2022/03/01 06:31:24;;;;;;;14.83;9.60;;;-0.30;97.30;;;;;;5056374;28;20685;-64
2022/03/01 06:33:50;;;;;;;15.65;10.25;;;-0.40;97.50;;;;;;5049701;28;20794;-64
2022/03/01 06:36:16;;;;;;;14.30;8.68;;;-0.70;97.30;;;;;;5052128;28;20192;-64
2022/03/01 06:38:42;;;;;;;10.53;8.47;;;0.00;97.80;;;;;;5065061;28;20189;-64
2022/03/01 06:41:07;;;;;;;11.70;8.67;;;0.10;97.40;;;;;;5067043;28;20192;-64
2022/03/01 06:43:33;;;;;;;12.53;9.20;;;-0.10;97.80;;;;;;5063929;28;20811;-62
2022/03/01 06:45:59;;;;;;;14.27;9.37;;;-0.50;97.10;;;;;;5067287;28;20279;-64
2022/03/01 06:48:24;;;;;;;17.80;9.43;;;0.00;97.60;;;;;;5060223;28;20221;-63
2022/03/01 06:50:50;;;;;;;13.70;9.17;;;-0.50;96.70;;;;;;5061713;28;20264;-64
2022/03/01 06:53:17;;;;;;;14.37;9.67;;;-0.10;96.60;;;;;;5067943;28;20775;-64
2022/03/01 06:55:43;;;;;;;12.80;9.45;;;0.20;96.80;;;;;;5068110;28;20973;-64
2022/03/01 06:58:10;;;;;;;14.25;9.85;;;0.10;97.20;;;;;;5048846;28;20217;-65
2022/03/01 07:00:36;;;;;;;12.82;9.90;;;0.00;96.90;;;;;;5065307;28;20177;-65
2022/03/01 07:03:02;;;;;;;15.95;9.70;;;0.10;96.80;;;;;;5063989;28;20310;-65
2022/03/01 07:05:28;;;;;;;12.68;8.65;;;0.10;96.80;;;;;;5059701;28;20197;-65
2022/03/01 07:07:54;;;;;;;16.80;11.00;;;-0.40;96.20;;;;;;5066867;28;20662;-65
2022/03/01 07:10:20;;;;;;;15.17;10.00;;;-0.30;96.40;;;;;;5064263;28;20193;-65
2022/03/01 07:12:47;;;;;;;16.97;8.93;;;0.10;96.40;;;;;;5066144;28;20212;-65
2022/03/01 07:15:13;;;;;;;14.25;8.20;;;0.10;96.30;;;;;;5057116;28;20177;-65
2022/03/01 07:17:38;;;;;;;16.23;9.90;;;0.40;96.40;;;;;;5067195;28;20185;-62
2022/03/01 07:20:07;;;;;;;14.07;9.20;;;0.50;96.40;;;;;;5056318;28;20214;-62
2022/03/01 07:22:33;;;;;;;15.50;9.93;;;0.40;96.10;;;;;;5071748;28;20304;-63
2022/03/01 07:24:59;;;;;;;13.75;10.10;;;0.50;95.90;;;;;;5069662;28;20189;-61
2022/03/01 07:27:24;;;;;;;17.53;11.60;;;0.40;95.70;;;;;;5060918;28;20566;-62
2022/03/01 07:29:50;;;;;;;16.17;10.60;;;0.60;95.40;;;;;;5064463;28;20450;-62
2022/03/01 07:32:16;;;;;;;16.33;10.60;;;0.50;95.00;;;;;;5067498;28;20209;-62
2022/03/01 07:34:42;;;;;;;15.13;9.63;;;0.90;94.70;;;;;;5063557;28;20234;-64
2022/03/01 07:37:08;;;;;;;18.42;9.15;;;0.60;94.50;;;;;;5070979;28;20223;-63
2022/03/01 07:39:33;;;;;;;13.10;9.90;;;1.10;94.10;;;;;;5065071;28;20627;-63
2022/03/01 07:41:59;;;;;;;14.20;8.60;;;1.20;93.50;;;;;;5072260;28;20258;-62
2022/03/01 07:44:25;;;;;;;12.23;9.10;;;1.50;93.00;;;;;;5063942;28;20186;-61
2022/03/01 07:46:50;;;;;;;15.03;8.43;;;1.50;91.20;;;;;;5054520;28;20185;-62
2022/03/01 07:49:16;;;;;;;15.93;7.67;;;1.30;90.10;;;;;;5042017;28;20187;-62
2022/03/01 07:51:41;;;;;;;12.00;8.77;;;1.20;87.60;;;;;;5070597;28;20255;-62
2022/03/01 07:54:07;;;;;;;11.23;8.30;;;1.60;88.40;;;;;;5062924;28;20296;-61
2022/03/01 07:56:33;;;;;;;8.83;7.27;;;1.80;87.00;;;;;;5063215;28;20284;-61
2022/03/01 07:58:58;;;;;;;10.97;8.23;;;1.40;85.50;;;;;;5069102;28;20189;-60
2022/03/01 08:01:24;;;;;;;12.90;7.90;;;2.60;85.00;;;;;;5055805;28;20604;-61
2022/03/01 08:03:50;;;;;;;14.97;8.70;;;2.20;84.50;;;;;;5062508;28;20259;-62
2022/03/01 08:06:16;;;;;;;9.40;7.23;;;1.80;83.20;;;;;;5068282;28;20250;-64
2022/03/01 08:08:42;;;;;;;9.93;8.00;;;2.50;84.30;;;;;;5066742;28;20189;-65
2022/03/01 08:11:08;;;;;;;11.70;8.03;;;3.00;81.00;;;;;;5053040;28;20276;-62
2022/03/01 08:13:35;;;;;;;16.85;9.20;;;3.30;82.30;;;;;;5057886;28;20225;-59
2022/03/01 08:16:03;;;;;;;12.80;8.30;;;2.40;80.70;;;;;;5068945;28;20191;-63
2022/03/01 08:18:29;;;;;;;11.35;8.48;;;2.70;81.30;;;;;;5069024;28;20184;-64
2022/03/01 08:20:55;;;;;;;14.38;8.98;;;2.90;80.90;;;;;;5055227;28;20182;-60
2022/03/01 08:23:20;;;;;;;11.33;8.70;;;3.30;80.40;;;;;;5068443;28;20228;-60
2022/03/01 08:25:46;;;;;;;14.87;9.43;;;3.20;79.50;;;;;;5070011;28;20196;-62
2022/03/01 08:28:13;;;;;;;11.73;8.50;;;3.30;79.10;;;;;;5064474;28;20215;-60
2022/03/01 08:30:39;;;;;;;10.93;8.88;;;3.30;79.10;;;;;;5049756;28;20533;-63
2022/03/01 08:33:05;;;;;;;12.50;8.25;;;3.30;77.30;;;;;;5066038;28;20311;-64
2022/03/01 08:35:34;;;;;;;11.10;8.57;;;3.40;77.10;;;;;;5061220;28;20307;-65
2022/03/01 08:38:02;;;;;;;13.50;7.95;;;3.30;76.90;;;;;;5075947;28;20449;-62
2022/03/01 08:40:31;;;;;;;12.13;8.40;;;3.70;75.30;;;;;;5071728;28;20239;-61
2022/03/01 08:42:56;;;;;;;10.73;8.18;;;3.70;74.80;;;;;;5064158;28;20219;-60
2022/03/01 08:45:22;;;;;;;11.53;8.50;;;3.50;73.90;;;;;;5063983;28;20197;-60
2022/03/01 08:47:48;;;;;;;12.43;8.83;;;3.90;74.30;;;;;;5064176;28;20190;-59
2022/03/01 08:50:14;;;;;;;13.00;9.47;;;4.00;74.50;;;;;;5055679;28;20193;-59
2022/03/01 08:52:39;;;;;;;11.97;8.50;;;3.90;74.20;;;;;;5059683;28;20218;-61
2022/03/01 08:55:07;;;;;;;12.07;9.10;;;4.30;72.90;;;;;;5069201;28;20448;-60
2022/03/01 08:57:33;;;;;;;12.35;8.27;;;5.60;70.50;;;;;;5065288;28;20181;-61
2022/03/01 08:59:59;;;;;;;10.80;8.80;;;7.30;65.00;;;;;;5063665;28;20661;-62
2022/03/01 09:02:25;;;;;;;9.23;7.80;;;8.00;61.00;;;;;;5079981;28;20217;-65
2022/03/01 09:04:50;;;;;;;11.80;9.10;;;9.30;59.10;;;;;;5055716;28;20186;-62
2022/03/01 09:07:16;;;;;;;10.33;8.10;;;9.40;55.20;;;;;;5070166;28;20190;-63
2022/03/01 09:09:42;;;;;;;9.40;8.33;;;9.60;55.10;;;;;;5067965;28;20687;-60
2022/03/01 09:12:08;;;;;;;11.20;8.50;;;10.20;52.40;;;;;;5066593;28;20510;-59
2022/03/01 09:14:33;;;;;;;13.40;8.80;;;9.90;52.70;;;;;;5061495;28;20461;-60
2022/03/01 09:16:59;;;;;;;11.07;8.77;;;10.50;50.20;;;;;;5067802;28;20432;-63
2022/03/01 09:19:25;;;;;;;9.60;8.00;;;10.10;50.20;;;;;;5055130;28;20183;-61
2022/03/01 09:21:50;;;;;;;13.37;8.30;;;9.60;51.40;;;;;;5063678;28;20204;-62
2022/03/01 09:24:16;;;;;;;11.00;8.80;;;9.20;52.40;;;;;;5056505;28;20183;-61
2022/03/01 09:26:42;;;;;;;10.57;9.10;;;9.70;52.10;;;;;;5066374;28;20190;-66
2022/03/01 09:29:07;;;;;;;11.20;8.83;;;9.60;52.00;;;;;;5048562;28;20540;-70
2022/03/01 09:31:33;;;;;;;8.77;7.70;;;8.90;52.90;;;;;;5066316;28;20273;-65
2022/03/01 09:33:59;;;;;;;9.70;8.53;;;8.90;53.40;;;;;;5061630;28;20212;-64
2022/03/01 09:36:25;;;;;;;9.10;8.20;;;9.00;52.90;;;;;;5062021;28;20178;-63
2022/03/01 09:38:51;;;;;;;8.70;7.80;;;9.40;53.00;;;;;;5077738;28;20185;-60
2022/03/01 09:41:17;;;;;;;10.37;8.83;;;10.10;50.40;;;;;;5061054;28;20176;-61
2022/03/01 09:43:43;;;;;;;11.77;8.18;;;11.00;49.20;;;;;;5069710;28;20629;-65
2022/03/01 09:46:09;;;;;;;10.50;8.00;;;11.80;48.30;;;;;;5052903;28;20196;-63
2022/03/01 09:48:36;;;;;;;10.23;8.63;;;12.20;47.80;;;;;;5061744;28;20586;-70
2022/03/01 09:51:05;;;;;;;8.65;7.75;;;12.20;47.20;;;;;;5063850;28;20193;-69
2022/03/01 09:53:31;;;;;;;8.50;7.60;;;13.60;45.40;;;;;;5058071;28;20240;-63
2022/03/01 09:55:59;;;;;;;9.13;8.23;;;13.50;44.00;;;;;;5064667;28;20193;-62
2022/03/01 09:58:26;;;;;;;12.40;9.13;;;13.90;42.40;;;;;;5067084;28;20208;-63
2022/03/01 10:00:51;;;;;;;9.80;8.65;;;14.30;41.80;;;;;;5052310;28;20247;-60
2022/03/01 10:03:20;;;;;;;10.30;8.23;;;13.90;42.60;;;;;;5060271;28;20962;-61
2022/03/01 10:05:46;;;;;;;9.13;8.32;;;14.00;41.50;;;;;;5061802;28;20462;-59
2022/03/01 10:08:22;;;;;;;8.50;7.65;;;14.30;41.60;;;;;;5067081;28;20908;-61
2022/03/01 10:10:53;;;;;;;9.98;8.75;;;14.40;40.70;;;;;;5069967;28;20299;-61
2022/03/01 10:13:24;;;;;;;11.57;9.15;;;14.50;39.80;;;;;;5064132;28;20268;-62
2022/03/01 10:15:51;;;;;;;11.18;9.05;;;15.00;39.40;;;;;;5058684;28;20177;-62
2022/03/01 10:18:17;;;;;;;10.80;8.60;;;14.90;39.20;;;;;;5059213;28;20176;-63
2022/03/01 10:20:45;;;;;;;10.43;8.90;;;14.50;39.60;;;;;;5046320;28;20600;-64
2022/03/01 10:23:12;;;;;;;9.52;8.48;;;13.90;39.20;;;;;;5037999;28;20235;-62
2022/03/01 10:25:43;;;;;;;8.68;7.75;;;14.60;39.00;;;;;;5062507;28;20218;-63
2022/03/01 10:28:08;;;;;;;11.77;8.32;;;14.80;38.50;;;;;;5073718;28;20180;-61
2022/03/01 10:30:37;;;;;;;9.95;8.70;;;14.70;38.30;;;;;;5067077;28;20272;-65
2022/03/01 10:33:06;;;;;;;9.40;8.20;;;14.50;37.40;;;;;;5060675;28;20231;-63
2022/03/01 10:35:33;;;;;;;10.23;7.97;;;14.30;38.30;;;;;;5047279;28;20662;-63
2022/03/01 10:38:01;;;;;;;9.90;8.85;;;13.60;38.50;;;;;;5060328;28;20255;-63
2022/03/01 10:40:27;;;;;;;10.20;9.10;;;13.10;40.10;;;;;;5061194;28;20186;-63
2022/03/01 10:43:09;;;;;;;10.23;7.93;;;12.50;40.20;;;;;;5062637;28;20216;-63
2022/03/01 10:45:42;;;;;;;11.05;8.65;;;12.60;41.00;;;;;;5064513;28;21834;-62
2022/03/01 10:48:11;;;;;;;8.85;7.80;;;13.00;40.80;;;;;;5069721;28;20271;-63
2022/03/01 10:50:39;;;;;;;9.65;8.07;;;13.20;40.10;;;;;;5066642;28;20514;-63
2022/03/01 10:53:06;;;;;;;8.80;7.90;;;12.70;40.80;;;;;;5082000;28;20197;-62
2022/03/01 10:55:34;;;;;;;12.85;8.43;;;12.60;41.40;;;;;;5057650;28;20181;-62
2022/03/01 10:58:11;;;;;;;11.07;8.57;;;12.70;40.90;;;;;;5067178;28;20173;-62
2022/03/01 11:00:38;;;;;;;13.63;9.85;;;12.80;40.40;;;;;;5078221;28;20291;-61
2022/03/01 11:03:05;;;;;;;12.88;9.05;;;12.30;41.30;;;;;;5067337;28;20215;-62
2022/03/01 11:05:32;;;;;;;9.52;8.50;;;13.00;41.50;;;;;;5062360;28;20219;-62
2022/03/01 11:08:05;;;;;;;8.52;7.63;;;12.40;40.20;;;;;;5069119;28;20184;-68
2022/03/01 11:10:32;;;;;;;9.50;8.60;;;12.70;41.20;;;;;;5053195;28;20197;-61
2022/03/01 11:13:01;;;;;;;15.30;10.48;;;13.80;40.40;;;;;;5067891;28;20207;-63
2022/03/01 11:15:37;;;;;;;12.32;9.20;;;14.00;39.40;;;;;;5063090;28;20173;-68
2022/03/01 11:18:21;;;;;;;15.13;11.32;;;14.90;40.10;;;;;;5072118;28;20176;-63
2022/03/01 11:20:49;;;;;;;11.50;8.38;;;15.30;38.00;;;;;;5066865;28;20178;-62
2022/03/01 11:23:20;;;;;;;10.30;8.23;;;13.30;37.70;;;;;;5048349;28;20712;-62
2022/03/01 11:25:46;;;;;;;8.77;7.43;;;13.20;39.10;;;;;;5082764;28;20205;-62
2022/03/01 11:28:13;;;;;;;11.32;8.18;;;14.50;38.70;;;;;;5069501;28;20184;-62
2022/03/01 11:30:47;;;;;;;9.63;8.43;;;14.80;38.10;;;;;;5062601;28;20677;-64
2022/03/01 11:33:35;;;;;;;9.55;8.55;;;14.00;37.10;;;;;;5056452;28;20221;-65
2022/03/01 11:36:03;;;;;;;9.48;7.18;;;12.30;38.70;;;;;;5063581;28;20180;-63
2022/03/01 11:38:32;;;;;;;8.30;7.50;;;12.90;39.10;;;;;;5067961;28;20216;-65
2022/03/01 11:41:27;;;;;;;8.93;7.95;;;12.50;38.40;;;;;;5062746;28;20276;-61
2022/03/01 11:43:56;;;;;;;9.80;8.00;;;12.30;39.30;;;;;;5036799;28;20291;-62
2022/03/01 11:46:22;;;;;;;9.48;8.23;;;11.40;39.70;;;;;;5068372;28;20185;-59
2022/03/01 11:48:54;;;;;;;9.70;7.90;;;11.90;40.50;;;;;;5068190;28;20213;-63
2022/03/01 11:51:32;;;;;;;10.82;8.20;;;11.90;40.50;;;;;;5066220;28;20257;-63
2022/03/01 11:54:03;;;;;;;11.55;9.90;;;12.60;41.10;;;;;;5051587;28;20212;-62
2022/03/01 11:56:28;;;;;;;10.88;8.80;;;13.00;40.10;;;;;;5071507;28;20189;-61
2022/03/01 11:59:02;;;;;;;12.37;10.57;;;13.00;39.20;;;;;;5064450;28;20246;-62
2022/03/01 12:01:27;;;;;;;9.50;7.38;;;12.80;39.20;;;;;;5066507;28;20286;-60
2022/03/01 12:04:00;;;;;;;8.23;7.43;;;12.90;38.00;;;;;;5063046;28;20644;-61
2022/03/01 12:06:28;;;;;;;7.93;7.13;;;11.90;37.90;;;;;;5066748;28;20192;-59
2022/03/01 12:09:03;;;;;;;8.50;7.60;;;11.60;38.10;;;;;;5068944;28;20180;-59
2022/03/01 12:11:34;;;;;;;8.23;7.18;;;11.40;38.50;;;;;;5063205;28;20672;-59
2022/03/01 12:14:09;;;;;;;7.32;6.40;;;11.60;38.00;;;;;;5067401;28;20309;-66
2022/03/01 12:16:36;;;;;;;7.75;6.40;;;11.50;36.80;;;;;;5063217;28;21073;-64
2022/03/01 12:19:09;;;;;;;7.28;6.05;;;11.30;36.60;;;;;;5062986;28;20188;-64
2022/03/01 12:21:36;;;;;;;7.40;6.40;;;11.60;36.30;;;;;;5066218;28;20264;-66
2022/03/01 12:24:02;;;;;;;7.90;7.10;;;11.60;37.70;;;;;;5070048;28;20199;-65
2022/03/01 12:26:28;;;;;;;8.63;6.65;;;11.20;37.40;;;;;;5068689;28;20200;-59
2022/03/01 12:28:58;;;;;;;7.15;6.22;;;11.50;36.60;;;;;;5066857;28;20570;-59
2022/03/01 12:31:28;;;;;;;8.15;7.35;;;11.00;36.60;;;;;;5068493;28;20203;-59
2022/03/01 12:33:55;;;;;;;10.30;6.28;;;11.30;37.50;;;;;;5030707;28;20297;-60
2022/03/01 12:36:32;;;;;;;12.15;7.05;;;11.20;38.80;;;;;;5066340;28;20528;-58
2022/03/01 12:39:04;;;;;;;7.57;6.88;;;11.00;37.80;;;;;;5066782;28;20221;-58
2022/03/01 12:41:31;;;;;;;7.28;6.57;;;10.90;37.80;;;;;;5065571;28;20231;-57
2022/03/01 12:44:00;;;;;;;8.93;6.85;;;10.10;38.10;;;;;;5061108;28;20181;-60
2022/03/01 12:46:27;;;;;;;8.68;7.00;;;10.30;39.30;;;;;;5053938;28;20960;-60